createdAt,value
2023-04-25T00:00:59.524Z,7.15
2023-04-25T00:03:26.434Z,6.60
2023-04-25T00:05:53.557Z,7.40
2023-04-25T00:08:20.760Z,7.15
2023-04-25T00:10:47.643Z,7.35
2023-04-25T00:13:14.600Z,7.22
2023-04-25T00:15:42.836Z,7.72
2023-04-25T00:18:10.022Z,8.30
2023-04-25T00:20:37.224Z,7.72
2023-04-25T00:23:04.125Z,6.70
2023-04-25T00:25:31.677Z,6.78
2023-04-25T00:27:58.532Z,7.57
2023-04-25T00:30:25.598Z,7.80
2023-04-25T00:32:53.390Z,8.13
2023-04-25T00:35:20.186Z,7.15
2023-04-25T00:37:47.024Z,7.88
2023-04-25T00:40:13.875Z,8.07
2023-04-25T00:42:41.722Z,7.43
2023-04-25T00:45:11.829Z,7.05
2023-04-25T00:47:40.512Z,6.97
2023-04-25T00:50:08.172Z,7.53
2023-04-25T00:52:35.347Z,7.38
2023-04-25T00:55:03.750Z,7.45
2023-04-25T00:57:30.845Z,7.05
2023-04-25T00:59:57.848Z,7.65
2023-04-25T01:02:25.087Z,7.68
2023-04-25T01:04:52.078Z,6.72
2023-04-25T01:07:19.119Z,6.82
2023-04-25T01:09:46.517Z,7.20
2023-04-25T01:12:13.831Z,7.95
2023-04-25T01:14:41.161Z,6.55
2023-04-25T01:17:08.849Z,7.10
2023-04-25T01:19:36.750Z,6.82
2023-04-25T01:22:04.806Z,7.20
2023-04-25T01:24:34.877Z,6.97
2023-04-25T01:27:02.821Z,6.28
2023-04-25T01:29:30.298Z,6.55
2023-04-25T01:31:57.825Z,6.80
2023-04-25T01:34:24.780Z,7.13
2023-04-25T01:36:52.036Z,7.15
2023-04-25T01:39:19.559Z,6.93
2023-04-25T01:41:47.932Z,6.90
2023-04-25T01:44:15.839Z,6.60
2023-04-25T01:46:42.852Z,7.13
2023-04-25T01:49:10.848Z,6.60
2023-04-25T01:51:38.176Z,6.80
2023-04-25T01:54:05.385Z,7.15
2023-04-25T01:56:34.338Z,7.30
2023-04-25T01:59:01.805Z,7.05
2023-04-25T02:01:28.678Z,6.75
2023-04-25T02:03:56.296Z,7.00
2023-04-25T02:06:23.584Z,7.25
2023-04-25T02:08:50.546Z,7.40
2023-04-25T02:11:17.920Z,6.75
2023-04-25T02:13:44.731Z,7.03
2023-04-25T02:16:11.757Z,7.70
2023-04-25T02:18:39.667Z,6.88
2023-04-25T02:21:07.632Z,7.00
2023-04-25T02:23:34.676Z,6.57
2023-04-25T02:26:01.510Z,6.80
2023-04-25T02:28:28.687Z,7.25
2023-04-25T02:30:55.603Z,7.00
2023-04-25T02:33:22.486Z,7.43
2023-04-25T02:35:49.279Z,7.10
2023-04-25T02:38:16.646Z,7.32
2023-04-25T02:40:43.558Z,6.63
2023-04-25T02:43:10.440Z,6.95
2023-04-25T02:45:37.273Z,6.57
2023-04-25T02:48:04.698Z,6.90
2023-04-25T02:50:31.502Z,6.97
2023-04-25T02:52:58.295Z,6.90
2023-04-25T02:55:26.326Z,6.93
2023-04-25T02:57:56.881Z,7.15
2023-04-25T03:00:24.757Z,7.05
2023-04-25T03:02:52.237Z,6.70
2023-04-25T03:05:19.464Z,6.20
2023-04-25T03:07:46.857Z,6.68
2023-04-25T03:10:14.254Z,7.13
2023-04-25T03:12:41.424Z,6.82
2023-04-25T03:15:08.706Z,6.78
2023-04-25T03:17:35.618Z,7.07
2023-04-25T03:20:02.797Z,6.85
2023-04-25T03:22:29.674Z,6.47
2023-04-25T03:24:56.601Z,7.22
2023-04-25T03:27:25.578Z,5.78
2023-04-25T03:29:52.368Z,6.30
2023-04-25T03:32:20.805Z,7.25
2023-04-25T03:34:47.685Z,6.82
2023-04-25T03:37:14.529Z,6.68
2023-04-25T03:39:41.378Z,7.55
2023-04-25T03:42:08.196Z,6.80
2023-04-25T03:44:35.050Z,6.82
2023-04-25T03:47:01.911Z,6.60
2023-04-25T03:49:31.558Z,7.03
2023-04-25T03:51:58.345Z,7.10
2023-04-25T03:54:26.657Z,6.68
2023-04-25T03:56:53.446Z,6.85
2023-04-25T03:59:20.441Z,6.80
2023-04-25T04:01:47.320Z,6.18
2023-04-25T04:04:14.284Z,6.85
2023-04-25T04:06:41.411Z,7.05
2023-04-25T04:09:12.061Z,6.13
2023-04-25T04:11:39.746Z,6.22
2023-04-25T04:14:11.078Z,6.55
2023-04-25T04:16:38.091Z,6.93
2023-04-25T04:19:05.162Z,6.20
2023-04-25T04:21:35.631Z,6.10
2023-04-25T04:24:02.765Z,6.18
2023-04-25T04:26:30.106Z,6.80
2023-04-25T04:28:57.285Z,6.88
2023-04-25T04:31:25.065Z,6.13
2023-04-25T04:33:52.570Z,6.57
2023-04-25T04:36:23.115Z,7.07
2023-04-25T04:38:50.404Z,6.47
2023-04-25T04:41:17.399Z,6.53
2023-04-25T04:43:44.567Z,7.40
2023-04-25T04:46:11.749Z,6.97
2023-04-25T04:48:41.830Z,6.95
2023-04-25T04:51:08.696Z,6.78
2023-04-25T04:53:36.099Z,6.35
2023-04-25T04:56:04.551Z,7.97
2023-04-25T04:58:32.036Z,6.88
2023-04-25T05:00:58.903Z,7.55
2023-04-25T05:03:26.042Z,7.40
2023-04-25T05:05:52.963Z,6.78
2023-04-25T05:08:19.877Z,7.53
2023-04-25T05:10:46.734Z,7.05
2023-04-25T05:13:13.635Z,7.03
2023-04-25T05:15:40.777Z,7.60
2023-04-25T05:18:07.618Z,6.93
2023-04-25T05:20:34.496Z,6.95
2023-04-25T05:23:01.877Z,7.03
2023-04-25T05:25:28.886Z,7.13
2023-04-25T05:27:55.789Z,6.60
2023-04-25T05:30:22.838Z,7.15
2023-04-25T05:32:49.666Z,6.35
2023-04-25T05:35:16.612Z,6.15
2023-04-25T05:37:44.040Z,6.13
2023-04-25T05:40:11.524Z,6.05
2023-04-25T05:42:38.914Z,6.75
2023-04-25T05:45:07.107Z,6.70
2023-04-25T05:47:33.899Z,6.18
2023-04-25T05:50:00.739Z,7.28
2023-04-25T05:52:27.626Z,6.72
2023-04-25T05:54:54.691Z,6.88
2023-04-25T05:57:26.546Z,6.75
2023-04-25T05:59:55.795Z,6.57
2023-04-25T06:02:23.008Z,6.45
2023-04-25T06:04:52.478Z,7.10
2023-04-25T06:07:21.058Z,6.22
2023-04-25T06:09:49.301Z,6.38
2023-04-25T06:12:16.446Z,6.38
2023-04-25T06:14:43.322Z,6.10
2023-04-25T06:17:11.327Z,6.20
2023-04-25T06:19:38.158Z,7.00
2023-04-25T06:22:05.055Z,6.25
2023-04-25T06:24:31.917Z,5.78
2023-04-25T06:26:58.724Z,6.53
2023-04-25T06:29:25.717Z,6.07
2023-04-25T06:31:53.420Z,6.65
2023-04-25T06:34:20.272Z,6.97
2023-04-25T06:36:47.110Z,6.32
2023-04-25T06:39:13.959Z,6.18
2023-04-25T06:41:40.991Z,6.18
2023-04-25T06:44:07.831Z,6.05
2023-04-25T06:46:34.815Z,6.03
2023-04-25T06:49:03.185Z,5.90
2023-04-25T06:51:31.875Z,6.13
2023-04-25T06:53:58.771Z,6.03
2023-04-25T06:56:25.718Z,5.35
2023-04-25T06:58:52.962Z,5.55
2023-04-25T07:01:20.088Z,6.68
2023-04-25T07:03:47.278Z,6.18
2023-04-25T07:06:15.248Z,5.60
2023-04-25T07:08:42.291Z,6.15
2023-04-25T07:11:09.233Z,5.95
2023-04-25T07:13:36.098Z,5.93
2023-04-25T07:16:03.090Z,5.75
2023-04-25T07:18:30.082Z,5.63
2023-04-25T07:20:59.393Z,5.45
2023-04-25T07:23:26.327Z,5.45
2023-04-25T07:25:53.184Z,6.20
2023-04-25T07:28:20.089Z,6.15
2023-04-25T07:30:46.974Z,4.97
2023-04-25T07:33:13.897Z,5.25
2023-04-25T07:35:41.016Z,5.90
2023-04-25T07:38:07.907Z,5.22
2023-04-25T07:40:35.385Z,5.50
2023-04-25T07:43:02.210Z,5.43
2023-04-25T07:45:29.088Z,4.28
2023-04-25T07:47:55.935Z,5.50
2023-04-25T07:50:22.864Z,4.57
2023-04-25T07:52:49.667Z,4.15
2023-04-25T07:55:16.735Z,4.80
2023-04-25T07:57:43.560Z,4.50
2023-04-25T08:00:11.096Z,5.22
2023-04-25T08:02:38.908Z,5.32
2023-04-25T08:05:06.448Z,4.40
2023-04-25T08:07:33.660Z,4.63
2023-04-25T08:10:01.830Z,4.72
2023-04-25T08:12:28.706Z,4.85
2023-04-25T08:14:55.566Z,4.30
2023-04-25T08:17:22.420Z,4.05
2023-04-25T08:19:50.885Z,4.18
2023-04-25T08:22:17.788Z,4.35
2023-04-25T08:24:44.607Z,4.55
2023-04-25T08:27:12.963Z,4.63
2023-04-25T08:29:39.814Z,4.97
2023-04-25T08:32:06.787Z,3.50
2023-04-25T08:34:37.996Z,3.88
2023-04-25T08:37:05.870Z,3.92
2023-04-25T08:39:32.673Z,3.72
2023-04-25T08:41:59.504Z,3.75
2023-04-25T08:44:27.036Z,4.00
2023-04-25T08:46:54.361Z,3.70
2023-04-25T08:49:21.664Z,3.38
2023-04-25T08:51:48.853Z,3.65
2023-04-25T08:54:30.820Z,3.25
2023-04-25T08:57:03.482Z,4.20
2023-04-25T08:59:31.845Z,3.50
2023-04-25T09:01:59.122Z,4.10
2023-04-25T09:04:26.491Z,3.40
2023-04-25T09:06:53.354Z,3.03
2023-04-25T09:09:20.203Z,2.95
2023-04-25T09:11:47.010Z,3.85
2023-04-25T09:14:15.890Z,4.57
2023-04-25T09:16:58.188Z,4.35
2023-04-25T09:19:38.857Z,3.92
2023-04-25T09:22:08.617Z,3.67
2023-04-25T09:24:47.267Z,3.38
2023-04-25T09:27:20.132Z,3.40
2023-04-25T09:29:47.519Z,3.60
2023-04-25T09:32:32.682Z,3.17
2023-04-25T09:34:59.714Z,4.30
2023-04-25T09:37:31.462Z,3.30
2023-04-25T09:40:01.824Z,2.42
2023-04-25T09:42:32.446Z,2.90
2023-04-25T09:45:03.187Z,3.05
2023-04-25T09:47:30.348Z,2.97
2023-04-25T09:49:57.378Z,3.05
2023-04-25T09:52:26.206Z,2.83
2023-04-25T09:54:54.246Z,3.58
2023-04-25T09:57:22.687Z,2.95
2023-04-25T09:59:52.019Z,2.70
2023-04-25T10:02:21.706Z,3.17
2023-04-25T10:04:54.102Z,2.75
2023-04-25T10:07:30.804Z,2.90
2023-04-25T10:10:03.198Z,3.20
2023-04-25T10:12:32.189Z,2.40
2023-04-25T10:15:01.915Z,2.33
2023-04-25T10:17:29.441Z,2.58
2023-04-25T10:19:57.531Z,2.90
2023-04-25T10:22:40.555Z,2.47
2023-04-25T10:25:11.511Z,2.40
2023-04-25T10:27:39.962Z,3.15
2023-04-25T10:30:15.546Z,2.55
2023-04-25T10:32:46.639Z,3.10
2023-04-25T10:35:25.280Z,2.53
2023-04-25T10:37:59.696Z,2.38
2023-04-25T10:40:27.088Z,2.55
2023-04-25T10:42:56.020Z,3.58
2023-04-25T10:45:23.335Z,3.15
2023-04-25T10:47:50.189Z,2.92
2023-04-25T10:50:20.018Z,3.38
2023-04-25T10:52:46.902Z,3.33
2023-04-25T10:55:13.761Z,2.95
2023-04-25T10:57:42.947Z,3.47
2023-04-25T11:00:13.323Z,2.90
2023-04-25T11:02:49.399Z,3.22
2023-04-25T11:05:24.065Z,2.83
2023-04-25T11:08:03.920Z,2.60
2023-04-25T11:10:37.902Z,3.25
2023-04-25T11:13:05.717Z,2.67
2023-04-25T11:15:35.231Z,2.95
2023-04-25T11:18:03.276Z,2.47
2023-04-25T11:20:30.154Z,3.53
2023-04-25T11:23:00.977Z,2.30
2023-04-25T11:25:28.031Z,3.78
2023-04-25T11:27:59.696Z,3.05
2023-04-25T11:30:28.699Z,3.50
2023-04-25T11:32:56.032Z,3.20
2023-04-25T11:35:24.420Z,2.90
2023-04-25T11:37:51.785Z,2.45
2023-04-25T11:40:18.808Z,2.92
2023-04-25T11:42:47.708Z,3.00
2023-04-25T11:45:16.857Z,2.80
2023-04-25T11:47:44.025Z,2.90
2023-04-25T11:50:12.824Z,3.20
2023-04-25T11:52:45.026Z,3.35
2023-04-25T11:55:18.115Z,3.28
2023-04-25T11:57:46.467Z,3.58
2023-04-25T12:00:18.400Z,3.58
2023-04-25T12:02:53.030Z,2.72
2023-04-25T12:05:31.965Z,2.95
2023-04-25T12:07:59.798Z,2.90
2023-04-25T12:10:27.232Z,2.38
2023-04-25T12:12:55.721Z,3.05
2023-04-25T12:15:26.355Z,2.60
2023-04-25T12:17:56.274Z,2.85
2023-04-25T12:20:26.942Z,3.58
2023-04-25T12:22:54.363Z,3.25
2023-04-25T12:25:41.108Z,3.47
2023-04-25T12:28:20.900Z,3.42
2023-04-25T12:31:10.080Z,3.22
2023-04-25T12:33:38.366Z,3.55
2023-04-25T12:36:12.251Z,3.28
2023-04-25T12:38:40.652Z,3.00
2023-04-25T12:41:08.349Z,3.42
2023-04-25T12:43:35.689Z,3.80
2023-04-25T12:46:02.492Z,2.83
2023-04-25T12:48:29.407Z,3.10
2023-04-25T12:50:56.320Z,2.55
2023-04-25T12:53:25.483Z,3.15
2023-04-25T12:55:52.785Z,2.90
2023-04-25T12:58:20.442Z,3.15
2023-04-25T13:00:47.985Z,2.65
2023-04-25T13:03:16.116Z,2.90
2023-04-25T13:05:43.766Z,3.20
2023-04-25T13:08:10.779Z,2.90
2023-04-25T13:10:39.583Z,2.75
2023-04-25T13:13:07.956Z,3.15
2023-04-25T13:15:35.352Z,2.50
2023-04-25T13:18:02.996Z,2.97
2023-04-25T13:20:30.014Z,3.47
2023-04-25T13:23:00.392Z,3.20
2023-04-25T13:25:29.809Z,3.28
2023-04-25T13:27:56.657Z,2.42
2023-04-25T13:30:23.682Z,2.70
2023-04-25T13:32:51.013Z,2.95
2023-04-25T13:35:18.369Z,3.60
2023-04-25T13:37:45.160Z,3.25
2023-04-25T13:40:12.478Z,2.97
2023-04-25T13:42:39.906Z,3.20
2023-04-25T13:45:08.308Z,3.58
2023-04-25T13:47:36.391Z,3.65
2023-04-25T13:50:04.563Z,2.70
2023-04-25T13:52:31.493Z,3.25
2023-04-25T13:54:59.123Z,3.25
2023-04-25T13:57:26.578Z,3.42
2023-04-25T13:59:54.137Z,2.47
2023-04-25T14:02:21.106Z,3.20
2023-04-25T14:04:48.001Z,3.22
2023-04-25T14:07:17.424Z,2.67
2023-04-25T14:09:44.419Z,2.20
2023-04-25T14:12:12.292Z,2.28
2023-04-25T14:14:40.170Z,2.45
2023-04-25T14:17:07.998Z,2.25
2023-04-25T14:19:35.095Z,2.40
2023-04-25T14:22:02.274Z,2.53
2023-04-25T14:24:31.991Z,2.30
2023-04-25T14:27:00.189Z,2.45
2023-04-25T14:29:27.313Z,2.33
2023-04-25T14:31:55.461Z,2.50
2023-04-25T14:34:22.301Z,2.50
2023-04-25T14:36:49.172Z,2.78
2023-04-25T14:39:16.011Z,2.80
2023-04-25T14:41:42.792Z,2.70
2023-04-25T14:44:10.828Z,2.40
2023-04-25T14:46:37.966Z,2.83
2023-04-25T14:49:05.428Z,2.78
2023-04-25T14:51:32.233Z,2.80
2023-04-25T14:53:59.189Z,2.42
2023-04-25T14:56:27.868Z,2.83
2023-04-25T14:58:54.725Z,3.03
2023-04-25T15:01:22.048Z,2.72
2023-04-25T15:03:49.628Z,2.70
2023-04-25T15:06:16.594Z,2.67
2023-04-25T15:08:43.487Z,2.47
2023-04-25T15:11:12.204Z,2.20
2023-04-25T15:13:42.634Z,2.55
2023-04-25T15:16:10.783Z,3.00
2023-04-25T15:18:37.715Z,2.53
2023-04-25T15:21:05.507Z,2.53
2023-04-25T15:23:32.592Z,2.60
2023-04-25T15:25:59.443Z,2.13
2023-04-25T15:28:26.407Z,1.85
2023-04-25T15:30:53.367Z,1.55
2023-04-25T15:33:20.272Z,2.03
2023-04-25T15:35:47.049Z,1.98
2023-04-25T15:38:13.960Z,2.00
2023-04-25T15:40:41.638Z,2.17
2023-04-25T15:43:12.691Z,2.30
2023-04-25T15:45:39.625Z,2.47
2023-04-25T15:48:07.518Z,2.72
2023-04-25T15:50:34.609Z,2.50
2023-04-25T15:53:01.919Z,2.05
2023-04-25T15:55:28.783Z,2.65
2023-04-25T15:57:56.010Z,2.05
2023-04-25T16:00:23.068Z,2.28
2023-04-25T16:02:50.203Z,1.92
2023-04-25T16:05:18.241Z,2.50
2023-04-25T16:07:46.913Z,2.75
2023-04-25T16:10:14.783Z,1.90
2023-04-25T16:12:41.976Z,2.13
2023-04-25T16:15:09.552Z,2.60
2023-04-25T16:17:36.880Z,2.30
2023-04-25T16:20:10.479Z,2.70
2023-04-25T16:22:39.451Z,2.15
2023-04-25T16:25:07.442Z,3.65
2023-04-25T16:27:40.633Z,2.65
2023-04-25T16:30:09.557Z,2.10
2023-04-25T16:32:37.530Z,3.03
2023-04-25T16:35:04.560Z,2.28
2023-04-25T16:37:31.623Z,3.35
2023-04-25T16:39:58.560Z,3.67
2023-04-25T16:42:26.742Z,2.40
2023-04-25T16:44:53.619Z,2.33
2023-04-25T16:47:20.896Z,2.38
2023-04-25T16:49:49.513Z,3.65
2023-04-25T16:52:16.770Z,2.55
2023-04-25T16:54:43.724Z,2.70
2023-04-25T16:57:11.562Z,2.40
2023-04-25T16:59:39.828Z,2.38
2023-04-25T17:02:15.146Z,2.28
2023-04-25T17:04:42.687Z,1.80
2023-04-25T17:07:11.068Z,2.25
2023-04-25T17:09:39.402Z,2.38
2023-04-25T17:12:07.538Z,2.53
2023-04-25T17:14:36.086Z,3.00
2023-04-25T17:17:03.929Z,5.07
2023-04-25T17:19:31.883Z,5.60
2023-04-25T17:21:58.797Z,4.32
2023-04-25T17:24:25.871Z,3.80
2023-04-25T17:26:53.797Z,4.00
2023-04-25T17:29:24.942Z,4.15
2023-04-25T17:31:55.096Z,2.60
2023-04-25T17:34:22.214Z,2.10
2023-04-25T17:36:49.113Z,2.42
2023-04-25T17:39:17.738Z,3.45
2023-04-25T17:41:45.256Z,3.30
2023-04-25T17:44:14.740Z,2.90
2023-04-25T17:46:41.923Z,2.70
2023-04-25T17:49:09.064Z,2.17
2023-04-25T17:51:37.398Z,2.38
2023-04-25T17:54:04.390Z,2.25
2023-04-25T17:56:33.208Z,2.13
2023-04-25T17:59:01.754Z,3.03
2023-04-25T18:01:28.780Z,2.88
2023-04-25T18:03:56.267Z,2.50
2023-04-25T18:06:23.411Z,2.63
2023-04-25T18:08:50.548Z,2.60
2023-04-25T18:11:17.676Z,3.40
2023-04-25T18:13:44.882Z,2.47
2023-04-25T18:16:11.819Z,3.05
2023-04-25T18:18:38.804Z,3.20
2023-04-25T18:21:07.949Z,2.97
2023-04-25T18:23:37.802Z,2.97
2023-04-25T18:26:05.667Z,3.03
2023-04-25T18:28:34.397Z,3.30
2023-04-25T18:31:01.448Z,3.72
2023-04-25T18:33:28.415Z,3.60
2023-04-25T18:35:59.322Z,3.15
2023-04-25T18:41:06.180Z,3.63
2023-04-25T18:43:44.540Z,3.50
2023-04-25T18:46:11.644Z,3.55
2023-04-25T18:48:38.529Z,2.90
2023-04-25T18:51:07.081Z,2.88
2023-04-25T18:53:35.144Z,2.20
2023-04-25T18:56:02.413Z,2.45
2023-04-25T18:58:29.599Z,2.60
2023-04-25T19:00:57.800Z,2.28
2023-04-25T19:03:24.870Z,2.30
2023-04-25T19:05:54.273Z,1.92
2023-04-25T19:08:21.827Z,2.58
2023-04-25T19:10:53.774Z,2.45
2023-04-25T19:13:21.367Z,2.22
2023-04-25T19:15:49.782Z,2.53
2023-04-25T19:18:17.526Z,2.60
2023-04-25T19:20:44.444Z,2.28
2023-04-25T19:23:12.122Z,2.47
2023-04-25T19:25:39.286Z,2.30
2023-04-25T19:28:11.685Z,2.65
2023-04-25T19:30:41.762Z,2.88
2023-04-25T19:33:08.671Z,2.33
2023-04-25T19:35:35.534Z,2.13
2023-04-25T19:38:02.454Z,2.10
2023-04-25T19:40:29.434Z,3.58
2023-04-25T19:42:57.295Z,2.42
2023-04-25T19:45:26.672Z,1.83
2023-04-25T19:47:55.401Z,2.35
2023-04-25T19:50:23.796Z,2.03
2023-04-25T19:52:56.574Z,2.50
2023-04-25T19:58:07.371Z,2.17
2023-04-25T20:00:34.199Z,2.35
2023-04-25T20:03:01.314Z,2.50
2023-04-25T20:05:29.980Z,2.92
2023-04-25T20:07:57.112Z,7.82
2023-04-25T20:10:24.258Z,2.70
2023-04-25T20:12:51.092Z,2.03
2023-04-25T20:15:18.391Z,2.28
2023-04-25T20:17:49.713Z,2.40
2023-04-25T20:20:19.857Z,2.60
2023-04-25T20:22:53.968Z,2.42
2023-04-25T20:27:47.827Z,3.42
2023-04-25T20:30:16.620Z,3.55
2023-04-25T20:32:46.311Z,3.10
2023-04-25T20:35:13.873Z,3.38
2023-04-25T20:37:40.814Z,3.45
2023-04-25T20:40:14.865Z,3.55
2023-04-25T20:42:44.824Z,3.08
2023-04-25T20:45:21.361Z,2.80
2023-04-25T20:47:49.216Z,3.28
2023-04-25T20:50:16.405Z,3.08
2023-04-25T20:52:43.388Z,3.45
2023-04-25T20:55:12.226Z,3.00
2023-04-25T20:57:42.554Z,2.97
2023-04-25T21:00:26.212Z,2.85
2023-04-25T21:02:57.821Z,2.42
2023-04-25T21:05:28.154Z,2.80
2023-04-25T21:07:55.166Z,2.85
2023-04-25T21:10:22.180Z,2.50
2023-04-25T21:12:50.146Z,2.45
2023-04-25T21:15:18.319Z,3.00
2023-04-25T21:17:47.678Z,2.97
2023-04-25T21:20:19.603Z,3.45
2023-04-25T21:22:54.649Z,3.30
2023-04-25T21:25:25.591Z,2.78
2023-04-25T21:27:54.936Z,2.88
2023-04-25T21:30:24.963Z,2.80
2023-04-25T21:32:53.354Z,2.67
2023-04-25T21:35:29.739Z,2.92
2023-04-25T21:37:57.052Z,3.00
2023-04-25T21:40:24.633Z,3.00
2023-04-25T21:42:54.339Z,2.90
2023-04-25T21:45:22.792Z,2.88
2023-04-25T21:47:51.326Z,2.83
2023-04-25T21:50:19.070Z,3.13
2023-04-25T21:52:46.122Z,2.90
2023-04-25T21:55:16.567Z,3.03
2023-04-25T21:57:44.581Z,2.78
2023-04-25T22:00:41.016Z,2.95
2023-04-25T22:03:08.055Z,2.47
2023-04-25T22:05:35.505Z,2.88
2023-04-25T22:08:03.921Z,2.88
2023-04-25T22:10:38.858Z,2.55
2023-04-25T22:13:05.813Z,2.85
2023-04-25T22:15:33.130Z,3.00
2023-04-25T22:18:00.042Z,3.22
2023-04-25T22:20:28.371Z,2.75
2023-04-25T22:22:56.810Z,2.47
2023-04-25T22:25:24.119Z,2.97
2023-04-25T22:27:51.604Z,2.67
2023-04-25T22:30:18.976Z,3.00
2023-04-25T22:32:46.055Z,2.75
2023-04-25T22:35:14.045Z,2.92
2023-04-25T22:37:41.986Z,3.35
2023-04-25T22:40:09.359Z,2.95
2023-04-25T22:42:40.450Z,2.78
2023-04-25T22:45:08.507Z,2.67
2023-04-25T22:47:39.522Z,2.92
2023-04-25T22:50:08.619Z,2.83
2023-04-25T22:52:35.592Z,3.10
2023-04-25T22:55:05.758Z,3.30
2023-04-25T22:57:33.325Z,3.00
2023-04-25T23:00:02.129Z,2.88
2023-04-25T23:02:33.421Z,3.17
2023-04-25T23:05:00.775Z,2.90
2023-04-25T23:07:29.349Z,2.65
2023-04-25T23:09:56.543Z,2.60
2023-04-25T23:12:24.024Z,2.50
2023-04-25T23:14:52.078Z,2.92
2023-04-25T23:17:21.302Z,2.88
2023-04-25T23:19:48.520Z,3.40
2023-04-25T23:22:15.421Z,3.20
2023-04-25T23:24:42.293Z,2.70
2023-04-25T23:27:09.183Z,3.08
2023-04-25T23:29:37.799Z,3.53
2023-04-25T23:32:05.210Z,3.35
2023-04-25T23:34:33.203Z,3.08
2023-04-25T23:37:01.763Z,3.30
2023-04-25T23:39:28.950Z,2.97
2023-04-25T23:41:56.465Z,3.03
2023-04-25T23:44:23.263Z,3.25
2023-04-25T23:46:53.384Z,3.38
2023-04-25T23:49:21.135Z,3.00
2023-04-25T23:51:49.168Z,3.17
2023-04-25T23:54:17.060Z,3.50
2023-04-25T23:56:45.160Z,3.13
2023-04-25T23:59:12.016Z,3.80
